AirNav   Air Wisconsin pilot careers
 
 782 users online  

OG34 Meyer Riverside Airpark
Tigard, Oregon, USA

GOING TO TIGARD?


FAA INFORMATION EFFECTIVE 29 MARCH 2018

Location

FAA Identifier: OG34
Lat/Long: 45-23-59.4250N / 122-49-44.3540W
45-23.990417N / 122-49.739233W
45.3998403 / -122.8289872
(estimated)
Elevation: 252 ft. / 77 m (estimated)
Variation: 19E (1985)
From city: 3 miles SW of TIGARD, OR
Time zone: UTC -7 (UTC -8 during Standard Time)
Zip code: 97224

Airport Operations

Airport use: Private use. Permission required prior to landing
Activation date: 05/1956
Control tower: no
ARTCC: SEATTLE CENTER
FSS: MC MINNVILLE FLIGHT SERVICE STATION
Attendance: ON CALL ON CALL
Wind indicator: yes
Segmented circle: no

Airport Communications

WX ASOS at UAO (9 nm S): PHONE 503-678-3011
WX ASOS at HIO (10 nm NW): PHONE 503-640-2984
WX ASOS at PDX (15 nm NE): PHONE 503-284-6771
WX ASOS at VUO (15 nm NE): 135.125 (360-696-1280)
WX ASOS at MMV (18 nm SW): 135.675 (503-434-9153)

Nearby radio navigation aids

VOR radial/distance  VOR name  Freq  Var
UBGr045/6.9NEWBERG VOR/DME117.4021E
BTGr185/23.1BATTLE GROUND VORTAC116.6021E

 
NDB name  Hdg/Dist  Freq  Var  ID
BANKS131/16.635616EPND .--. -. -..
LAKER225/17.633216ELBH .-.. -... ....
TURNO352/33.526617ESLE ... .-.. .

Airport Services

Airframe service: NONE
Powerplant service: NONE

Runway Information

Runway 16/34

Dimensions: 1585 x 100 ft. / 483 x 30 m
Surface: turf
RUNWAY 16  RUNWAY 34
Traffic pattern: leftleft
Obstructions: plines, 10 ft. from runwaytrees, 100 ft. from runway

Airport Ownership and Management from official FAA records

Ownership: Privately-owned
Owner: JAMES MEYER
14730 SW BEEF BEND RD
TIGARD, OR 97224
Phone 503-590-6903
Manager: JAMES MEYER
14730 SW BEEF BEND RD
TIGARD, OR 97224
Phone 503-590-6903

Airport Operational Statistics

Aircraft based on the field: 2
Single engine airplanes: 1
Helicopters: 1
    

Instrument Procedures

There are no published instrument procedures at OG34.

Some nearby airports with instrument procedures:

KUAO - Aurora State Airport (9 nm S)
KHIO - Portland-Hillsboro Airport (10 nm NW)
KPDX - Portland International Airport (15 nm NE)
KVUO - Pearson Field Airport (15 nm NE)
KMMV - Mc Minnville Municipal Airport (18 nm SW)
 
Loc | Ops | Rwys | IFR | FBO | Links
Com | Nav | Svcs | Stats | Notes

AirNav Hotels Sweepstakes
 
Area around OG34 (Meyer Riverside Airpark)
 
Road maps at: MapQuest Bing Google
 
Aerial photo
WARNING: Photo may not be current or correct
Aerial photo of OG34 (Meyer Riverside Airpark)
Do you have a better or more recent aerial photo of Meyer Riverside Airpark that you would like to share? If so, please send us your photo.

 
Sectional chart

 
Airport distance calculator
Flying to Meyer Riverside Airpark? Find the distance to fly.

From to OG34

Sunrise and sunset
Times for 25-Apr-2018
 Local
(UTC-7)
 Zulu
(UTC)
Morning civil twilight05:3812:38
Sunrise06:1013:10
Sunset20:0903:09
Evening civil twilight20:4103:41

Current date and time
Zulu (UTC)  25-Apr-2018 11:38:26
Local (UTC-7)  25-Apr-2018 04:38:26
 
METAR
KUAO 
9nm S 
251053Z AUTO 00000KT 10SM CLR 13/06 A3001 RMK AO2 SLP159 T01330056
KHIO 
10nm NW 
251053Z AUTO 00000KT 10SM CLR 09/06 A3001 RMK AO2 SLP158 T00890061
KPDX 
15nm NE 
251053Z 29003KT 10SM BKN300 12/07 A3001 RMK AO2 SLP162 T01220072
KVUO 
15nm NE 
251053Z AUTO 00000KT 10SM CLR 11/07 A3001 RMK AO2 SLP161 T01060067
KMMV 
18nm SW 
251053Z AUTO 00000KT 10SM CLR 10/07 A3000 RMK AO2 SLP156 T01000067
KTTD 
20nm NE 
251053Z AUTO VRB03KT 10SM CLR 16/04 A3000 RMK AO2 SLP159 T01560044
TAF
KUAO 
9nm S 
250520Z 2506/2606 35006KT P6SM BKN300 FM250700 VRB03KT P6SM BKN250 FM251900 03006KT P6SM SCT250
KHIO 
10nm NW 
250520Z 2506/2606 05007KT P6SM BKN250 FM250700 VRB03KT P6SM BKN250
KPDX 
15nm NE 
250853Z 2509/2606 VRB04KT P6SM BKN300 FM252100 32010KT P6SM SCT300
KTTD 
20nm NE 
250520Z 2506/2606 10012KT P6SM BKN250 FM251200 10005KT P6SM BKN250 FM251800 09011KT P6SM SCT300
NOTAMs
Click for the latest NOTAMs
NOTAMs are issued by the DoD/FAA and will open in a separate window not controlled by AirNav.

 

 
 

Would you like to see your business listed on this page?

 If your business provides an interesting product or service to pilots, flight crews, aircraft, or users of the Meyer Riverside Airpark, you should consider listing it here.  To start the listing process, click on the button below
 
Add a business
 

Other Pages about Meyer Riverside Airpark

Update a link
 
Copyright © AirNav, LLC. All rights reserved. Privacy Policy  Contact